createdAt,value
2019-03-20T00:00:46.517Z,18.73
2019-03-20T00:01:47.973Z,18.73
2019-03-20T00:02:49.481Z,18.74
2019-03-20T00:03:50.848Z,18.73
2019-03-20T00:04:52.353Z,18.72
2019-03-20T00:05:53.726Z,18.73
2019-03-20T00:06:55.214Z,18.73
2019-03-20T00:07:56.598Z,18.72
2019-03-20T00:08:58.002Z,18.72
2019-03-20T00:09:59.406Z,18.74
2019-03-20T00:11:00.913Z,18.72
2019-03-20T00:12:02.327Z,18.72
2019-03-20T00:13:03.732Z,18.72
2019-03-20T00:14:05.099Z,18.72
2019-03-20T00:15:11.852Z,18.72
2019-03-20T00:16:13.223Z,18.73
2019-03-20T00:17:14.622Z,18.73
2019-03-20T00:18:16.103Z,18.72
2019-03-20T00:19:17.512Z,18.71
2019-03-20T00:20:18.916Z,18.71
2019-03-20T00:21:20.324Z,18.69
2019-03-20T00:22:21.823Z,18.69
2019-03-20T00:23:24.221Z,18.70
2019-03-20T00:24:25.592Z,18.70
2019-03-20T00:25:27.093Z,18.69
2019-03-20T00:26:28.467Z,18.70
2019-03-20T00:27:29.867Z,18.69
2019-03-20T00:28:31.550Z,18.70
2019-03-20T00:29:32.960Z,18.69
2019-03-20T00:30:34.367Z,18.69
2019-03-20T00:31:35.749Z,18.70
2019-03-20T00:32:37.220Z,18.70
2019-03-20T00:33:38.605Z,18.70
2019-03-20T00:34:40.116Z,18.70
2019-03-20T00:35:41.530Z,18.70
2019-03-20T00:36:43.035Z,18.70
2019-03-20T00:37:44.645Z,18.69
2019-03-20T00:38:46.051Z,18.66
2019-03-20T00:39:47.537Z,18.67
2019-03-20T00:40:50.032Z,18.69
2019-03-20T00:41:52.416Z,18.69
2019-03-20T00:42:53.819Z,18.69
2019-03-20T00:43:55.212Z,18.68
2019-03-20T00:44:56.629Z,18.69
2019-03-20T00:45:59.129Z,18.69
2019-03-20T00:47:00.540Z,18.69
2019-03-20T00:48:01.946Z,18.68
2019-03-20T00:49:03.354Z,18.69
2019-03-20T00:50:10.629Z,18.68
2019-03-20T00:51:12.024Z,18.68
2019-03-20T00:52:13.500Z,18.70
2019-03-20T00:53:14.895Z,18.69
2019-03-20T00:54:16.282Z,18.69
2019-03-20T00:55:18.296Z,18.69
2019-03-20T00:56:19.688Z,18.69
2019-03-20T00:57:21.101Z,18.70
2019-03-20T00:58:23.125Z,18.70
2019-03-20T00:59:24.524Z,18.69
2019-03-20T01:00:25.908Z,18.69
2019-03-20T01:01:27.305Z,18.68
2019-03-20T01:02:28.682Z,18.68
2019-03-20T01:03:30.256Z,18.70
2019-03-20T01:04:31.753Z,18.69
2019-03-20T01:05:33.148Z,18.68
2019-03-20T01:06:34.537Z,18.69
2019-03-20T01:07:35.920Z,18.68
2019-03-20T01:08:37.419Z,18.68
2019-03-20T01:09:38.813Z,18.67
2019-03-20T01:10:40.185Z,18.67
2019-03-20T01:11:41.584Z,18.67
2019-03-20T01:12:43.021Z,18.67
2019-03-20T01:13:45.066Z,18.66
2019-03-20T01:14:46.576Z,18.66
2019-03-20T01:15:47.966Z,18.66
2019-03-20T01:16:49.354Z,18.64
2019-03-20T01:17:50.942Z,18.64
2019-03-20T01:18:52.328Z,18.65
2019-03-20T01:19:53.730Z,18.65
2019-03-20T01:20:55.120Z,18.63
2019-03-20T01:21:56.600Z,18.65
2019-03-20T01:22:57.983Z,18.65
2019-03-20T01:23:59.380Z,18.65
2019-03-20T01:25:00.778Z,18.65
2019-03-20T01:26:02.158Z,18.65
2019-03-20T01:27:03.540Z,18.65
2019-03-20T01:28:04.926Z,18.65
2019-03-20T01:29:06.588Z,18.66
2019-03-20T01:30:13.510Z,18.64
2019-03-20T01:31:14.888Z,18.64
2019-03-20T01:32:16.297Z,18.65
2019-03-20T01:33:17.680Z,18.64
2019-03-20T01:34:19.146Z,18.64
2019-03-20T01:35:24.067Z,18.64
2019-03-20T01:36:23.937Z,18.63
2019-03-20T01:37:25.321Z,18.64
2019-03-20T01:38:26.811Z,18.64
2019-03-20T01:39:28.206Z,18.65
2019-03-20T01:40:29.704Z,18.64
2019-03-20T01:41:37.845Z,18.65
2019-03-20T01:42:34.603Z,18.65
2019-03-20T01:43:35.976Z,18.66
2019-03-20T01:44:37.383Z,18.65
2019-03-20T01:45:38.775Z,18.66
2019-03-20T01:46:40.155Z,18.65
2019-03-20T01:47:41.552Z,18.65
2019-03-20T01:48:42.941Z,18.64
2019-03-20T01:49:44.336Z,18.64
2019-03-20T01:50:46.735Z,18.64
2019-03-20T01:51:48.204Z,18.64
2019-03-20T01:52:49.596Z,18.63
2019-03-20T01:53:50.979Z,18.64
2019-03-20T01:54:52.382Z,18.63
2019-03-20T01:55:53.779Z,18.64
2019-03-20T01:56:55.170Z,18.65
2019-03-20T01:57:56.556Z,18.63
2019-03-20T01:58:57.939Z,18.62
2019-03-20T01:59:59.529Z,18.64
2019-03-20T02:01:00.948Z,18.62
2019-03-20T02:02:02.765Z,18.61
2019-03-20T02:03:04.272Z,18.62
2019-03-20T02:04:05.659Z,18.62
2019-03-20T02:05:07.238Z,18.61
2019-03-20T02:06:08.623Z,18.61
2019-03-20T02:07:10.012Z,18.62
2019-03-20T02:08:11.395Z,18.61
2019-03-20T02:09:12.784Z,18.61
2019-03-20T02:10:15.173Z,18.60
2019-03-20T02:11:16.676Z,18.60
2019-03-20T02:12:18.052Z,18.59
2019-03-20T02:13:19.453Z,18.58
2019-03-20T02:14:20.833Z,18.60
2019-03-20T02:15:22.244Z,18.59
2019-03-20T02:16:23.627Z,18.60
2019-03-20T02:17:25.014Z,18.60
2019-03-20T02:18:26.401Z,18.60
2019-03-20T02:19:27.892Z,18.61
2019-03-20T02:20:29.300Z,18.61
2019-03-20T02:21:30.806Z,18.62
2019-03-20T02:22:33.180Z,18.62
2019-03-20T02:23:34.583Z,18.61
2019-03-20T02:24:36.074Z,18.61
2019-03-20T02:25:37.476Z,18.61
2019-03-20T02:26:38.871Z,18.62
2019-03-20T02:27:40.357Z,18.62
2019-03-20T02:28:41.741Z,18.61
2019-03-20T02:29:43.232Z,18.62
2019-03-20T02:30:44.620Z,18.61
2019-03-20T02:31:46.028Z,18.62
2019-03-20T02:32:48.387Z,18.62
2019-03-20T02:33:49.791Z,18.62
2019-03-20T02:34:51.207Z,18.62
2019-03-20T02:35:52.990Z,18.62
2019-03-20T02:36:54.395Z,18.62
2019-03-20T02:37:55.771Z,18.62
2019-03-20T02:38:57.166Z,18.61
2019-03-20T02:39:58.539Z,18.61
2019-03-20T02:40:59.948Z,18.60
2019-03-20T02:42:01.445Z,18.61
2019-03-20T02:43:03.056Z,18.61
2019-03-20T02:44:04.484Z,18.61
2019-03-20T02:45:08.694Z,18.61
2019-03-20T02:46:10.095Z,18.61
2019-03-20T02:47:11.497Z,18.61
2019-03-20T02:48:12.880Z,18.62
2019-03-20T02:49:14.275Z,18.61
2019-03-20T02:50:15.667Z,18.61
2019-03-20T02:51:17.067Z,18.61
2019-03-20T02:52:18.450Z,18.61
2019-03-20T02:53:19.864Z,18.61
2019-03-20T02:54:21.273Z,18.61
2019-03-20T02:55:22.682Z,18.62
2019-03-20T02:56:24.095Z,18.61
2019-03-20T02:57:25.521Z,18.61
2019-03-20T02:58:26.892Z,18.62
2019-03-20T02:59:28.298Z,18.61
2019-03-20T03:00:29.678Z,18.62
2019-03-20T03:01:31.065Z,18.62
2019-03-20T03:02:32.755Z,18.61
2019-03-20T03:03:34.126Z,18.62
2019-03-20T03:04:35.526Z,18.61
2019-03-20T03:05:36.906Z,18.63
2019-03-20T03:06:38.373Z,18.61
2019-03-20T03:07:39.864Z,18.62
2019-03-20T03:08:42.379Z,18.63
2019-03-20T03:09:43.793Z,18.63
2019-03-20T03:10:45.217Z,18.63
2019-03-20T03:11:46.630Z,18.64
2019-03-20T03:12:48.101Z,18.64
2019-03-20T03:13:49.445Z,18.63
2019-03-20T03:14:50.831Z,18.64
2019-03-20T03:15:52.323Z,18.61
2019-03-20T03:16:53.716Z,18.62
2019-03-20T03:17:55.109Z,18.61
2019-03-20T03:18:56.517Z,18.62
2019-03-20T03:19:57.954Z,18.62
2019-03-20T03:20:59.344Z,18.62
2019-03-20T03:22:00.846Z,18.61
2019-03-20T03:23:02.345Z,18.61
2019-03-20T03:24:03.723Z,18.60
2019-03-20T03:25:06.631Z,18.61
2019-03-20T03:26:09.195Z,18.59
2019-03-20T03:27:10.591Z,18.60
2019-03-20T03:28:11.985Z,18.60
2019-03-20T03:29:13.500Z,18.60
2019-03-20T03:30:16.408Z,18.61
2019-03-20T03:31:17.946Z,18.61
2019-03-20T03:32:19.342Z,18.63
2019-03-20T03:33:20.774Z,18.61
2019-03-20T03:34:22.140Z,18.64
2019-03-20T03:35:23.526Z,18.64
2019-03-20T03:36:24.905Z,18.64
2019-03-20T03:37:27.393Z,18.65
2019-03-20T03:38:28.870Z,18.66
2019-03-20T03:39:30.289Z,18.65
2019-03-20T03:40:31.685Z,18.63
2019-03-20T03:41:33.301Z,18.64
2019-03-20T03:42:34.714Z,18.63
2019-03-20T03:43:36.112Z,18.63
2019-03-20T03:44:37.491Z,18.63
2019-03-20T03:45:38.885Z,18.62
2019-03-20T03:46:40.363Z,18.62
2019-03-20T03:47:41.761Z,18.63
2019-03-20T03:48:43.150Z,18.62
2019-03-20T03:49:44.558Z,18.62
2019-03-20T03:50:48.287Z,18.61
2019-03-20T03:51:49.275Z,18.60
2019-03-20T03:52:50.687Z,18.61
2019-03-20T03:53:52.095Z,18.62
2019-03-20T03:54:53.514Z,18.61
2019-03-20T03:55:54.899Z,18.62
2019-03-20T03:56:56.377Z,18.62
2019-03-20T03:57:58.789Z,18.61
2019-03-20T03:59:00.159Z,18.61
2019-03-20T04:00:04.813Z,18.62
2019-03-20T04:01:07.347Z,18.61
2019-03-20T04:02:09.724Z,18.63
2019-03-20T04:03:11.139Z,18.62
2019-03-20T04:04:12.607Z,18.61
2019-03-20T04:05:14.090Z,18.61
2019-03-20T04:06:15.581Z,18.61
2019-03-20T04:07:16.955Z,18.62
2019-03-20T04:08:18.415Z,18.61
2019-03-20T04:09:19.811Z,18.62
2019-03-20T04:10:21.232Z,18.61
2019-03-20T04:11:22.636Z,18.62
2019-03-20T04:12:24.057Z,18.61
2019-03-20T04:13:25.457Z,18.61
2019-03-20T04:14:27.006Z,18.61
2019-03-20T04:15:28.379Z,18.60
2019-03-20T04:16:29.780Z,18.61
2019-03-20T04:17:31.162Z,18.63
2019-03-20T04:18:32.580Z,18.63
2019-03-20T04:19:33.959Z,18.64
2019-03-20T04:20:35.380Z,18.65
2019-03-20T04:21:37.151Z,18.64
2019-03-20T04:22:38.564Z,18.65
2019-03-20T04:23:41.081Z,18.65
2019-03-20T04:24:42.482Z,18.66
2019-03-20T04:25:43.955Z,18.65
2019-03-20T04:26:45.439Z,18.66
2019-03-20T04:27:46.937Z,18.67
2019-03-20T04:28:48.497Z,18.68
2019-03-20T04:29:49.887Z,18.68
2019-03-20T04:30:51.292Z,18.69
2019-03-20T04:31:52.709Z,18.68
2019-03-20T04:32:54.122Z,18.68
2019-03-20T04:33:57.685Z,18.69
2019-03-20T04:34:59.128Z,18.69
2019-03-20T04:36:00.502Z,18.70
2019-03-20T04:37:01.910Z,18.70
2019-03-20T04:38:03.277Z,18.71
2019-03-20T04:39:05.470Z,18.70
2019-03-20T04:40:10.063Z,18.70
2019-03-20T04:41:11.475Z,18.71
2019-03-20T04:42:12.889Z,18.71
2019-03-20T04:43:15.778Z,18.71
2019-03-20T04:44:17.192Z,18.70
2019-03-20T04:45:18.606Z,18.72
2019-03-20T04:46:20.171Z,18.70
2019-03-20T04:47:21.568Z,18.70
2019-03-20T04:48:23.145Z,18.71
2019-03-20T04:49:24.551Z,18.71
2019-03-20T04:50:25.940Z,18.71
2019-03-20T04:51:27.360Z,18.71
2019-03-20T04:52:28.773Z,18.71
2019-03-20T04:53:30.183Z,18.71
2019-03-20T04:54:31.696Z,18.71
2019-03-20T04:55:33.129Z,18.72
2019-03-20T04:56:34.505Z,18.72
2019-03-20T04:57:35.909Z,18.72
2019-03-20T04:58:37.285Z,18.72
2019-03-20T04:59:38.757Z,18.73
2019-03-20T05:00:40.149Z,18.73
2019-03-20T05:01:41.562Z,18.72
2019-03-20T05:02:42.974Z,18.73
2019-03-20T05:03:44.387Z,18.73
2019-03-20T05:04:45.793Z,18.74
2019-03-20T05:05:47.319Z,18.74
2019-03-20T05:06:58.433Z,18.74
2019-03-20T05:07:51.996Z,18.75
2019-03-20T05:08:54.796Z,18.74
2019-03-20T05:09:56.382Z,18.74
2019-03-20T05:10:57.768Z,18.75
2019-03-20T05:11:59.180Z,18.74
2019-03-20T05:13:00.586Z,18.74
2019-03-20T05:14:02.196Z,18.75
2019-03-20T05:15:05.809Z,18.75
2019-03-20T05:16:07.216Z,18.74
2019-03-20T05:17:08.592Z,18.75
2019-03-20T05:18:09.991Z,18.75
2019-03-20T05:19:11.368Z,18.75
2019-03-20T05:20:17.934Z,18.74
2019-03-20T05:21:19.321Z,18.75
2019-03-20T05:22:20.738Z,18.77
2019-03-20T05:23:22.146Z,18.77
2019-03-20T05:24:23.559Z,18.75
2019-03-20T05:25:24.973Z,18.75
2019-03-20T05:26:26.364Z,18.74
2019-03-20T05:27:27.740Z,18.74
2019-03-20T05:28:29.133Z,18.73
2019-03-20T05:29:30.508Z,18.72
2019-03-20T05:30:31.983Z,18.72
2019-03-20T05:31:33.371Z,18.70
2019-03-20T05:32:34.777Z,18.70
2019-03-20T05:33:36.186Z,18.70
2019-03-20T05:34:37.601Z,18.69
2019-03-20T05:35:39.008Z,18.68
2019-03-20T05:36:40.445Z,18.67
2019-03-20T05:37:41.994Z,18.65
2019-03-20T05:38:43.380Z,18.65
2019-03-20T05:39:44.789Z,18.65
2019-03-20T05:40:46.198Z,18.63
2019-03-20T05:41:47.603Z,18.64
2019-03-20T05:42:48.977Z,18.64
2019-03-20T05:43:50.413Z,18.64
2019-03-20T05:44:51.792Z,18.64
2019-03-20T05:45:53.188Z,18.63
2019-03-20T05:46:54.574Z,18.63
2019-03-20T05:47:55.989Z,18.62
2019-03-20T05:48:57.409Z,18.62
2019-03-20T05:49:58.813Z,18.61
2019-03-20T05:51:00.232Z,18.61
2019-03-20T05:52:01.740Z,18.60
2019-03-20T05:53:03.216Z,18.59
2019-03-20T05:54:04.614Z,18.60
2019-03-20T05:55:06.692Z,18.58
2019-03-20T05:56:08.091Z,18.58
2019-03-20T05:57:09.484Z,18.58
2019-03-20T05:58:10.892Z,18.58
2019-03-20T05:59:12.307Z,18.59
2019-03-20T06:00:16.399Z,18.58
2019-03-20T06:01:17.864Z,18.59
2019-03-20T06:02:19.262Z,18.60
2019-03-20T06:03:20.648Z,18.59
2019-03-20T06:04:22.440Z,18.59
2019-03-20T06:05:23.828Z,18.58
2019-03-20T06:06:25.221Z,18.58
2019-03-20T06:07:26.726Z,18.59
2019-03-20T06:08:28.116Z,18.59
2019-03-20T06:09:29.512Z,18.60
2019-03-20T06:10:31.988Z,18.60
2019-03-20T06:11:33.389Z,18.63
2019-03-20T06:12:34.780Z,18.64
2019-03-20T06:13:36.172Z,18.66
2019-03-20T06:14:37.561Z,18.69
2019-03-20T06:15:38.947Z,18.71
2019-03-20T06:16:40.339Z,18.75
2019-03-20T06:17:41.770Z,18.80
2019-03-20T06:18:43.140Z,18.84
2019-03-20T06:19:44.544Z,18.88
2019-03-20T06:20:45.924Z,18.93
2019-03-20T06:21:47.324Z,18.98
2019-03-20T06:22:48.742Z,19.03
2019-03-20T06:23:50.132Z,19.08
2019-03-20T06:24:51.527Z,19.15
2019-03-20T06:25:53.014Z,19.21
2019-03-20T06:26:54.569Z,19.28
2019-03-20T06:27:55.928Z,19.33
2019-03-20T06:28:57.304Z,19.39
2019-03-20T06:29:58.702Z,19.45
2019-03-20T06:31:00.077Z,19.51
2019-03-20T06:32:01.547Z,19.55
2019-03-20T06:33:02.932Z,19.64
2019-03-20T06:34:04.318Z,19.70
2019-03-20T06:35:07.006Z,19.75
2019-03-20T06:36:08.395Z,19.82
2019-03-20T06:37:09.894Z,19.86
2019-03-20T06:38:11.321Z,19.93
2019-03-20T06:39:12.986Z,19.98
2019-03-20T06:40:15.396Z,20.02
2019-03-20T06:41:16.870Z,20.06
2019-03-20T06:42:18.271Z,20.10
2019-03-20T06:43:19.671Z,20.14
2019-03-20T06:44:21.121Z,20.19
2019-03-20T06:45:22.524Z,20.22
2019-03-20T06:46:23.946Z,20.25
2019-03-20T06:47:25.355Z,20.27
2019-03-20T06:48:26.784Z,20.30
2019-03-20T06:49:28.163Z,20.32
2019-03-20T06:50:29.565Z,20.35
2019-03-20T06:51:31.046Z,20.39
2019-03-20T06:52:32.444Z,20.42
2019-03-20T06:53:33.945Z,20.44
2019-03-20T06:54:36.358Z,20.46
2019-03-20T06:55:37.873Z,20.49
2019-03-20T06:56:39.291Z,20.51
2019-03-20T06:57:41.699Z,20.52
2019-03-20T06:58:43.113Z,20.54
2019-03-20T07:00:11.346Z,20.55
2019-03-20T07:01:16.342Z,20.56
2019-03-20T07:02:17.892Z,20.60
2019-03-20T07:03:23.860Z,20.58
2019-03-20T07:04:37.999Z,20.59
2019-03-20T07:05:55.089Z,20.59
2019-03-20T07:07:03.034Z,20.62
2019-03-20T07:08:05.516Z,20.64
2019-03-20T07:09:19.662Z,20.65
2019-03-20T07:10:31.210Z,20.65
2019-03-20T07:11:37.492Z,20.67
2019-03-20T07:12:38.888Z,20.69
2019-03-20T07:13:40.268Z,20.69
2019-03-20T07:14:41.778Z,20.69
2019-03-20T07:15:43.268Z,20.68
2019-03-20T07:16:44.652Z,20.69
2019-03-20T07:17:46.044Z,20.68
2019-03-20T07:18:47.433Z,20.70
2019-03-20T07:19:48.819Z,20.70
2019-03-20T07:20:50.221Z,20.70
2019-03-20T07:21:51.597Z,20.71
2019-03-20T07:22:53.004Z,20.70
2019-03-20T07:23:54.484Z,20.70
2019-03-20T07:24:56.885Z,20.71
2019-03-20T07:25:58.273Z,20.71
2019-03-20T07:26:59.664Z,20.71
2019-03-20T07:28:01.048Z,20.70
2019-03-20T07:29:02.536Z,20.72
2019-03-20T07:30:07.524Z,20.73
2019-03-20T07:31:15.110Z,20.73
2019-03-20T07:32:12.316Z,20.73
2019-03-20T07:33:13.789Z,20.74
2019-03-20T07:34:15.159Z,20.75
2019-03-20T07:35:16.560Z,20.75
2019-03-20T07:36:17.951Z,20.75
2019-03-20T07:37:19.353Z,20.75
2019-03-20T07:38:20.761Z,20.75
2019-03-20T07:39:22.174Z,20.75
2019-03-20T07:40:23.585Z,20.74
2019-03-20T07:41:26.798Z,20.75
2019-03-20T07:42:28.176Z,20.74
2019-03-20T07:43:29.576Z,20.74
2019-03-20T07:44:31.000Z,20.75
2019-03-20T07:45:32.422Z,20.74
2019-03-20T07:46:33.784Z,20.75
2019-03-20T07:47:35.268Z,20.76
2019-03-20T07:48:36.676Z,20.75
2019-03-20T07:49:38.148Z,20.75
2019-03-20T07:50:39.548Z,20.76
2019-03-20T07:51:42.061Z,20.76
2019-03-20T07:52:43.467Z,20.75
2019-03-20T07:53:44.979Z,20.76
2019-03-20T07:54:46.385Z,20.75
2019-03-20T07:55:47.790Z,20.75
2019-03-20T07:56:49.193Z,20.75
2019-03-20T07:57:50.569Z,20.76
2019-03-20T07:58:51.964Z,20.76
2019-03-20T07:59:53.342Z,20.77
2019-03-20T08:00:54.731Z,20.76
2019-03-20T08:01:56.221Z,20.75
2019-03-20T08:02:57.603Z,20.77
2019-03-20T08:03:59.065Z,20.76
2019-03-20T08:05:00.440Z,20.74
2019-03-20T08:06:03.337Z,20.73
2019-03-20T08:07:05.764Z,20.72
2019-03-20T08:08:07.965Z,20.71
2019-03-20T08:09:09.452Z,20.72
2019-03-20T08:10:15.572Z,20.71
2019-03-20T08:11:16.961Z,20.70
2019-03-20T08:12:19.356Z,20.71
2019-03-20T08:13:20.730Z,20.69
2019-03-20T08:14:22.198Z,20.68
2019-03-20T08:15:23.568Z,20.67
2019-03-20T08:16:24.969Z,20.67
2019-03-20T08:17:26.458Z,20.66
2019-03-20T08:18:27.941Z,20.67
2019-03-20T08:19:29.327Z,20.67
2019-03-20T08:20:30.713Z,20.66
2019-03-20T08:21:32.097Z,20.67
2019-03-20T08:22:33.603Z,20.66
2019-03-20T08:23:34.976Z,20.65
2019-03-20T08:24:36.379Z,20.66
2019-03-20T08:25:37.753Z,20.66
2019-03-20T08:26:39.261Z,20.65
2019-03-20T08:27:40.647Z,20.66
2019-03-20T08:28:42.039Z,20.65
2019-03-20T08:29:43.425Z,20.65
2019-03-20T08:30:44.815Z,20.65
2019-03-20T08:31:47.201Z,20.65
2019-03-20T08:32:48.606Z,20.65
2019-03-20T08:33:50.286Z,20.66
2019-03-20T08:34:52.328Z,20.66
2019-03-20T08:35:53.729Z,20.65
2019-03-20T08:36:55.109Z,20.66
2019-03-20T08:37:56.501Z,20.66
2019-03-20T08:38:57.896Z,20.67
2019-03-20T08:39:59.390Z,20.66
2019-03-20T08:41:00.777Z,20.66
2019-03-20T08:42:02.164Z,20.65
2019-03-20T08:43:03.563Z,20.66
2019-03-20T08:44:04.936Z,20.68
2019-03-20T08:45:13.596Z,20.66
2019-03-20T08:46:15.013Z,20.66
2019-03-20T08:47:16.422Z,20.66
2019-03-20T08:48:17.822Z,20.66
2019-03-20T08:49:19.201Z,20.64
2019-03-20T08:50:21.800Z,20.64
2019-03-20T08:51:23.174Z,20.64
2019-03-20T08:52:24.568Z,20.63
2019-03-20T08:53:25.956Z,20.63
2019-03-20T08:54:27.474Z,20.61
2019-03-20T08:55:28.889Z,20.62
2019-03-20T08:56:30.305Z,20.63
2019-03-20T08:57:31.722Z,20.61
2019-03-20T08:58:33.121Z,20.62
2019-03-20T08:59:34.501Z,20.60
2019-03-20T09:00:35.902Z,20.60
2019-03-20T09:01:37.372Z,20.60
2019-03-20T09:02:38.777Z,20.60
2019-03-20T09:03:40.191Z,20.59
2019-03-20T09:04:41.572Z,20.59
2019-03-20T09:05:43.083Z,20.57
2019-03-20T09:06:44.454Z,20.57
2019-03-20T09:07:47.471Z,20.57
2019-03-20T09:08:49.252Z,20.58
2019-03-20T09:09:50.921Z,20.57
2019-03-20T09:10:52.416Z,20.58
2019-03-20T09:11:53.900Z,20.57
2019-03-20T09:12:55.394Z,20.58
2019-03-20T09:13:56.793Z,20.59
2019-03-20T09:15:01.524Z,20.58
2019-03-20T09:16:03.745Z,20.58
2019-03-20T09:17:05.636Z,20.57
2019-03-20T09:18:07.139Z,20.57
2019-03-20T09:19:08.556Z,20.57
2019-03-20T09:20:21.056Z,20.57
2019-03-20T09:21:22.441Z,20.58
2019-03-20T09:22:23.836Z,20.60
2019-03-20T09:23:25.228Z,20.59
2019-03-20T09:24:26.636Z,20.59
2019-03-20T09:25:28.008Z,20.57
2019-03-20T09:26:29.406Z,20.58
2019-03-20T09:27:30.781Z,20.58
2019-03-20T09:28:32.180Z,20.58
2019-03-20T09:29:36.281Z,20.57
2019-03-20T09:30:36.868Z,20.58
2019-03-20T09:31:38.248Z,20.59
2019-03-20T09:32:39.738Z,20.59
2019-03-20T09:33:41.233Z,20.59
2019-03-20T09:34:42.732Z,20.59
2019-03-20T09:35:44.205Z,20.60
2019-03-20T09:36:45.613Z,20.60
2019-03-20T09:37:51.919Z,20.59
2019-03-20T09:38:50.529Z,20.59
2019-03-20T09:39:52.021Z,20.58
2019-03-20T09:40:53.494Z,20.58
2019-03-20T09:41:54.887Z,20.57
2019-03-20T09:42:56.359Z,20.57
2019-03-20T09:43:57.763Z,20.57
2019-03-20T09:44:59.177Z,20.58
2019-03-20T09:46:01.594Z,20.57
2019-03-20T09:47:02.996Z,20.56
2019-03-20T09:48:04.902Z,20.56
2019-03-20T09:49:06.960Z,20.57
2019-03-20T09:50:10.689Z,20.57
2019-03-20T09:51:12.064Z,20.57
2019-03-20T09:52:13.453Z,20.57
2019-03-20T09:53:14.831Z,20.57
2019-03-20T09:54:16.221Z,20.56
2019-03-20T09:55:17.607Z,20.57
2019-03-20T09:56:19.016Z,20.57
2019-03-20T09:57:20.421Z,20.57
2019-03-20T09:58:21.827Z,20.57
2019-03-20T09:59:23.236Z,20.57
2019-03-20T10:00:25.441Z,20.57
2019-03-20T10:01:26.803Z,20.58
2019-03-20T10:02:28.203Z,20.57
2019-03-20T10:03:29.581Z,20.58
2019-03-20T10:04:30.983Z,20.56
2019-03-20T10:05:32.372Z,20.58
2019-03-20T10:06:33.863Z,20.57
2019-03-20T10:07:35.382Z,20.57
2019-03-20T10:08:36.788Z,20.58
2019-03-20T10:09:39.358Z,20.58
2019-03-20T10:10:40.761Z,20.57
2019-03-20T10:11:42.138Z,20.57
2019-03-20T10:12:43.537Z,20.58
2019-03-20T10:13:45.911Z,20.58
2019-03-20T10:14:47.306Z,20.58
2019-03-20T10:15:48.723Z,20.58
2019-03-20T10:16:50.341Z,20.59
2019-03-20T10:17:51.766Z,20.60
2019-03-20T10:18:54.440Z,20.59
2019-03-20T10:19:55.854Z,20.60
2019-03-20T10:20:57.360Z,20.60
2019-03-20T10:21:58.829Z,20.60
2019-03-20T10:23:00.221Z,20.60
2019-03-20T10:24:01.589Z,20.59
2019-03-20T10:25:04.085Z,20.60
2019-03-20T10:26:05.470Z,20.61
2019-03-20T10:27:06.977Z,20.60
2019-03-20T10:28:08.496Z,20.59
2019-03-20T10:29:09.905Z,20.60
2019-03-20T10:30:19.312Z,20.60
2019-03-20T10:31:20.709Z,20.60
2019-03-20T10:32:22.088Z,20.61
2019-03-20T10:33:23.590Z,20.59
2019-03-20T10:34:24.969Z,20.59
2019-03-20T10:35:26.360Z,20.56
2019-03-20T10:36:27.853Z,20.58
2019-03-20T10:37:29.396Z,20.57
2019-03-20T10:38:30.801Z,20.57
2019-03-20T10:39:32.213Z,20.57
2019-03-20T10:40:33.629Z,20.56
2019-03-20T10:41:35.025Z,20.57
2019-03-20T10:42:36.501Z,20.57
2019-03-20T10:43:37.892Z,20.56
2019-03-20T10:44:39.276Z,20.56
2019-03-20T10:45:40.715Z,20.56
2019-03-20T10:46:42.144Z,20.56
2019-03-20T10:47:44.652Z,20.56
2019-03-20T10:48:46.079Z,20.57
2019-03-20T10:49:47.488Z,20.55
2019-03-20T10:50:48.998Z,20.56
2019-03-20T10:51:50.408Z,20.56
2019-03-20T10:52:51.893Z,20.56
2019-03-20T10:53:53.289Z,20.57
2019-03-20T10:54:54.677Z,20.57
2019-03-20T10:55:57.164Z,20.58
2019-03-20T10:56:58.571Z,20.58
2019-03-20T10:57:59.967Z,20.58
2019-03-20T10:59:01.372Z,20.58
2019-03-20T11:00:12.777Z,20.58
2019-03-20T11:01:14.295Z,20.60
2019-03-20T11:02:15.692Z,20.62
2019-03-20T11:03:17.065Z,20.61
2019-03-20T11:04:18.481Z,20.61
2019-03-20T11:05:20.152Z,20.61
2019-03-20T11:06:21.545Z,20.60
2019-03-20T11:07:22.965Z,20.60
2019-03-20T11:08:24.444Z,20.60
2019-03-20T11:09:25.960Z,20.61
2019-03-20T11:10:27.853Z,20.62
2019-03-20T11:11:29.305Z,20.61
2019-03-20T11:12:30.695Z,20.63
2019-03-20T11:13:32.071Z,20.63
2019-03-20T11:14:33.477Z,20.64
2019-03-20T11:15:34.852Z,20.64
2019-03-20T11:16:36.358Z,20.65
2019-03-20T11:17:37.768Z,20.64
2019-03-20T11:18:39.184Z,20.66
2019-03-20T11:19:40.601Z,20.67
2019-03-20T11:20:42.014Z,20.66
2019-03-20T11:21:43.423Z,20.65
2019-03-20T11:22:45.149Z,20.66
2019-03-20T11:23:46.519Z,20.66
2019-03-20T11:24:47.921Z,20.65
2019-03-20T11:25:49.304Z,20.65
2019-03-20T11:26:50.806Z,20.64
2019-03-20T11:27:52.196Z,20.65
2019-03-20T11:28:53.608Z,20.64
2019-03-20T11:29:55.023Z,20.63
2019-03-20T11:30:56.537Z,20.64
2019-03-20T11:31:57.944Z,20.65
2019-03-20T11:32:59.356Z,20.64
2019-03-20T11:34:00.924Z,20.64
2019-03-20T11:35:02.524Z,20.64
2019-03-20T11:36:03.897Z,20.64
2019-03-20T11:37:05.592Z,20.63
2019-03-20T11:38:06.985Z,20.64
2019-03-20T11:39:08.679Z,20.64
2019-03-20T11:40:27.879Z,20.64
2019-03-20T11:41:30.396Z,20.65
2019-03-20T11:42:31.812Z,20.66
2019-03-20T11:43:33.213Z,20.66
2019-03-20T11:44:34.592Z,20.66
2019-03-20T11:45:35.991Z,20.65
2019-03-20T11:46:37.380Z,20.66
2019-03-20T11:47:38.770Z,20.67
2019-03-20T11:48:40.160Z,20.67
2019-03-20T11:49:41.549Z,20.68
2019-03-20T11:50:43.251Z,20.67
2019-03-20T11:51:44.736Z,20.68
2019-03-20T11:52:49.175Z,20.68
2019-03-20T11:53:50.564Z,20.68
2019-03-20T11:54:51.986Z,20.69
2019-03-20T11:55:53.420Z,20.68
2019-03-20T11:56:54.843Z,20.69
2019-03-20T11:57:57.357Z,20.69
2019-03-20T11:58:58.774Z,20.69
2019-03-20T12:00:00.309Z,20.69
2019-03-20T12:01:02.053Z,20.69
2019-03-20T12:02:03.520Z,20.69
2019-03-20T12:03:05.025Z,20.69
2019-03-20T12:04:06.540Z,20.68
2019-03-20T12:05:07.944Z,20.69
2019-03-20T12:06:09.355Z,20.68
2019-03-20T12:07:10.768Z,20.68
2019-03-20T12:08:12.164Z,20.67
2019-03-20T12:09:13.721Z,20.67
2019-03-20T12:10:23.526Z,20.66
2019-03-20T12:11:24.927Z,20.65
2019-03-20T12:12:26.308Z,20.65
2019-03-20T12:13:27.700Z,20.63
2019-03-20T12:14:29.199Z,20.62
2019-03-20T12:15:30.588Z,20.61
2019-03-20T12:16:32.082Z,20.60
2019-03-20T12:17:33.474Z,20.60
2019-03-20T12:18:34.860Z,20.60
2019-03-20T12:19:44.617Z,20.60
2019-03-20T12:20:39.605Z,20.58
2019-03-20T12:21:41.157Z,20.59
2019-03-20T12:22:42.731Z,20.56
2019-03-20T12:23:44.136Z,20.55
2019-03-20T12:24:45.526Z,20.53
2019-03-20T12:25:46.922Z,20.52
2019-03-20T12:26:48.416Z,20.51
2019-03-20T12:27:50.002Z,20.49
2019-03-20T12:28:52.485Z,20.49
2019-03-20T12:29:53.892Z,20.49
2019-03-20T12:30:55.375Z,20.46
2019-03-20T12:31:56.778Z,20.46
2019-03-20T12:32:58.153Z,20.46
2019-03-20T12:34:02.179Z,20.46
2019-03-20T12:35:06.049Z,20.46
2019-03-20T12:36:07.432Z,20.46
2019-03-20T12:37:08.812Z,20.46
2019-03-20T12:38:14.779Z,20.45
2019-03-20T12:39:13.472Z,20.44
2019-03-20T12:40:23.609Z,20.44
2019-03-20T12:41:24.983Z,20.45
2019-03-20T12:42:26.396Z,20.46
2019-03-20T12:43:27.768Z,20.46
2019-03-20T12:44:29.174Z,20.45
2019-03-20T12:45:37.785Z,20.44
2019-03-20T12:46:41.768Z,20.45
2019-03-20T12:47:42.511Z,20.47
2019-03-20T12:48:43.923Z,20.46
2019-03-20T12:49:45.340Z,20.48
2019-03-20T12:50:46.845Z,20.47
2019-03-20T12:51:48.220Z,20.47
2019-03-20T12:52:49.624Z,20.48
2019-03-20T12:53:51.002Z,20.48
2019-03-20T12:54:53.407Z,20.49
2019-03-20T12:55:54.797Z,20.49
2019-03-20T12:56:56.219Z,20.49
2019-03-20T12:57:57.628Z,20.49
2019-03-20T12:58:59.045Z,20.49
2019-03-20T13:00:00.498Z,20.50
2019-03-20T13:01:01.965Z,20.49
2019-03-20T13:02:03.438Z,20.49
2019-03-20T13:03:04.834Z,20.50
2019-03-20T13:04:06.217Z,20.50
2019-03-20T13:05:10.420Z,20.49
2019-03-20T13:06:11.808Z,20.50
2019-03-20T13:07:13.319Z,20.52
2019-03-20T13:08:14.731Z,20.50
2019-03-20T13:09:16.128Z,20.50
2019-03-20T13:10:21.908Z,20.51
2019-03-20T13:11:23.297Z,20.49
2019-03-20T13:12:24.688Z,20.49
2019-03-20T13:13:26.069Z,20.49
2019-03-20T13:14:27.454Z,20.49
2019-03-20T13:15:28.857Z,20.48
2019-03-20T13:16:30.259Z,20.49